Time;durP1;ratioP1;P1;durP2;ratioP2;P2;SDS_P1;SDS_P2;PMS_P1;PMS_P2;Temp;Humidity;BMP_temperature;BMP_pressure;BME280_temperature;BME280_humidity;BME280_pressure;Samples;Min_cycle;Max_cycle;Signal;HPM_P1;HPM_P2
2023/03/11 00:00:43;;;;;;;8.40;6.80;;;;;;;13.32;86.29;97670.44;5099507;28;20185;-54
2023/03/11 00:03:12;;;;;;;10.57;7.80;;;;;;;13.38;85.28;97662.56;5099798;28;20179;-54
2023/03/11 00:05:41;;;;;;;11.20;7.87;;;;;;;13.33;85.03;97643.78;5099722;28;20186;-54
2023/03/11 00:08:12;;;;;;;10.17;7.83;;;;;;;13.38;85.02;97660.00;5099921;28;20231;-55
2023/03/11 00:10:42;;;;;;;10.27;8.00;;;;;;;13.23;85.04;97626.00;5098894;28;20429;-54
2023/03/11 00:13:11;;;;;;;15.67;7.17;;;;;;;13.45;84.99;97651.22;5099596;28;20194;-54
2023/03/11 00:15:39;;;;;;;9.17;7.40;;;;;;;13.39;84.65;97648.78;5099611;28;20179;-55
2023/03/11 00:18:06;;;;;;;12.77;8.30;;;;;;;13.45;84.88;97645.22;5099536;28;20206;-54
2023/03/11 00:20:35;;;;;;;7.97;7.17;;;;;;;13.37;84.59;97617.03;5099515;28;20194;-54
2023/03/11 00:23:03;;;;;;;11.63;8.07;;;;;;;13.34;85.16;97611.97;5099465;28;20181;-55
2023/03/11 00:25:33;;;;;;;8.27;6.97;;;;;;;13.14;86.65;97611.59;5099519;28;20169;-55
2023/03/11 00:28:00;;;;;;;10.00;8.23;;;;;;;13.33;86.25;97615.41;5098249;28;20426;-54
2023/03/11 00:30:28;;;;;;;11.97;9.23;;;;;;;13.21;85.36;97574.44;5099253;28;20249;-54
2023/03/11 00:32:56;;;;;;;9.93;8.93;;;;;;;13.51;85.60;97602.03;5098358;28;20432;-54
2023/03/11 00:35:26;;;;;;;10.93;8.57;;;;;;;13.56;84.39;97582.16;5099149;28;20203;-54
2023/03/11 00:37:55;;;;;;;11.90;8.70;;;;;;;13.56;84.25;97579.56;5099304;28;20235;-54
2023/03/11 00:40:24;;;;;;;9.30;8.17;;;;;;;13.56;84.44;97587.31;5099189;28;20178;-55
2023/03/11 00:42:52;;;;;;;10.87;8.20;;;;;;;13.54;84.15;97573.59;5099188;28;20171;-55
2023/03/11 00:45:19;;;;;;;8.73;7.13;;;;;;;13.51;84.25;97563.34;5098855;28;20190;-55
2023/03/11 00:47:46;;;;;;;10.87;8.70;;;;;;;13.51;84.65;97563.34;5098969;28;20199;-54
2023/03/11 00:50:17;;;;;;;11.50;8.63;;;;;;;13.39;84.64;97542.19;5098931;28;20178;-54
2023/03/11 00:52:44;;;;;;;10.40;8.33;;;;;;;13.28;84.79;97511.53;5098840;28;20167;-54
2023/03/11 00:55:14;;;;;;;10.47;8.30;;;;;;;13.50;84.71;97541.03;5098649;28;20172;-55
2023/03/11 00:57:41;;;;;;;9.43;7.30;;;;;;;13.51;84.45;97553.03;5098677;28;20273;-55
2023/03/11 01:00:14;;;;;;;10.47;8.13;;;;;;;13.52;84.15;97544.41;5098806;28;20251;-54
2023/03/11 01:02:40;;;;;;;9.73;8.73;;;;;;;13.40;84.79;97555.06;5098506;28;20174;-54
2023/03/11 01:05:08;;;;;;;11.57;9.10;;;;;;;13.45;84.72;97550.63;5098628;28;20210;-54
2023/03/11 01:07:35;;;;;;;12.97;9.20;;;;;;;13.47;84.35;97548.00;5098464;28;20198;-55
2023/03/11 01:10:02;;;;;;;12.20;9.37;;;;;;;13.42;84.78;97537.81;5098735;28;20239;-54
2023/03/11 01:12:29;;;;;;;11.80;8.50;;;;;;;13.23;85.28;97534.00;5097710;28;20186;-55
2023/03/11 01:14:55;;;;;;;10.90;8.97;;;;;;;13.22;86.01;97527.16;5098547;28;20175;-54
2023/03/11 01:17:23;;;;;;;9.67;8.40;;;;;;;13.14;86.33;97525.66;5098431;28;20298;-54
2023/03/11 01:19:50;;;;;;;10.67;8.10;;;;;;;12.96;87.43;97514.06;5098512;28;20175;-54
2023/03/11 01:22:17;;;;;;;12.93;8.47;;;;;;;12.70;88.99;97506.09;5098463;28;20177;-54
2023/03/11 01:24:44;;;;;;;9.97;8.97;;;;;;;12.59;90.13;97501.22;5098283;28;20215;-54
2023/03/11 01:27:11;;;;;;;11.70;8.97;;;;;;;12.63;90.27;97502.84;5097888;28;20218;-54
2023/03/11 01:29:38;;;;;;;9.63;8.73;;;;;;;12.67;90.65;97508.75;5098290;28;20180;-54
2023/03/11 01:32:05;;;;;;;10.17;8.63;;;;;;;12.68;90.59;97505.31;5098065;28;20247;-54
2023/03/11 01:34:34;;;;;;;10.43;9.23;;;;;;;12.68;90.67;97489.84;5098267;28;20171;-54
2023/03/11 01:37:02;;;;;;;15.52;12.63;;;;;;;12.66;91.69;97497.59;5097024;28;20476;-54
2023/03/11 01:39:28;;;;;;;11.90;10.07;;;;;;;12.79;91.26;97509.31;5098018;28;20179;-54
2023/03/11 01:41:56;;;;;;;14.90;10.80;;;;;;;12.69;91.04;97487.22;5097088;28;20428;-55
2023/03/11 01:44:22;;;;;;;13.77;10.07;;;;;;;12.91;90.48;97521.06;5097663;28;20231;-54
2023/03/11 01:47:27;;;;;;;14.10;9.80;;;;;;;12.92;90.19;97518.44;5097946;28;20205;-54
2023/03/11 01:49:55;;;;;;;13.33;9.50;;;;;;;12.95;89.75;97500.31;5097998;28;20183;-54
2023/03/11 01:52:21;;;;;;;16.13;9.20;;;;;;;12.93;89.90;97493.50;5097939;28;20182;-55
2023/03/11 01:54:48;;;;;;;13.63;9.37;;;;;;;12.97;89.75;97505.41;5097849;28;20266;-54
2023/03/11 01:57:15;;;;;;;14.27;9.43;;;;;;;12.98;89.61;97504.53;5097572;28;20179;-55
2023/03/11 01:59:47;;;;;;;14.97;11.03;;;;;;;12.78;90.64;97504.19;5097922;28;20190;-55
2023/03/11 02:02:18;;;;;;;13.10;9.93;;;;;;;12.80;90.36;97477.50;5098074;28;20202;-55
2023/03/11 02:04:46;;;;;;;12.33;9.40;;;;;;;12.96;90.06;97480.56;5097925;28;20193;-54
2023/03/11 02:07:15;;;;;;;11.87;8.63;;;;;;;12.73;89.75;97436.47;5104717;28;20182;-54
2023/03/11 02:09:42;;;;;;;11.57;8.93;;;;;;;12.96;90.11;97452.19;5116498;28;20196;-54
2023/03/11 02:12:11;;;;;;;11.50;8.97;;;;;;;12.98;90.32;97451.28;5118116;28;20199;-54
2023/03/11 02:14:41;;;;;;;14.20;9.47;;;;;;;13.01;90.37;97455.50;5118067;28;20205;-54
2023/03/11 02:17:08;;;;;;;11.63;9.37;;;;;;;13.05;90.09;97467.41;5118055;28;20187;-54
2023/03/11 02:19:45;;;;;;;12.17;8.57;;;;;;;13.05;89.93;97482.88;5117985;28;20189;-54
2023/03/11 02:22:14;;;;;;;11.50;8.80;;;;;;;13.09;90.06;97496.56;5117902;28;20171;-55
2023/03/11 02:24:46;;;;;;;15.03;10.27;;;;;;;13.09;89.74;97514.63;5102172;28;20214;-54
2023/03/11 02:27:17;;;;;;;11.90;8.67;;;;;;;12.99;89.84;97547.50;5097541;28;20191;-55
2023/03/11 02:29:48;;;;;;;11.57;8.60;;;;;;;12.87;90.19;97551.22;5097706;28;20176;-54
2023/03/11 02:32:15;;;;;;;11.00;8.63;;;;;;;12.68;90.96;97549.09;5097549;28;20170;-54
2023/03/11 02:34:42;;;;;;;10.33;9.13;;;;;;;12.47;91.98;97549.59;5097545;28;20176;-54
2023/03/11 02:37:11;;;;;;;11.20;9.13;;;;;;;12.38;91.87;97546.34;5097479;28;20189;-54
2023/03/11 02:39:40;;;;;;;11.43;8.50;;;;;;;12.36;92.36;97550.66;5097537;28;20186;-54
2023/03/11 02:42:12;;;;;;;10.43;9.27;;;;;;;12.29;92.56;97556.84;5096356;28;20194;-54
2023/03/11 02:44:44;;;;;;;9.27;8.37;;;;;;;12.26;92.67;97556.06;5117616;28;20211;-54
2023/03/11 02:47:11;;;;;;;10.37;8.53;;;;;;;12.17;93.20;97549.38;5099521;28;20184;-54
2023/03/11 02:49:38;;;;;;;12.60;8.63;;;;;;;12.19;93.02;97555.34;5097103;28;20172;-54
2023/03/11 02:52:06;;;;;;;10.33;9.20;;;;;;;12.03;92.93;97515.34;5097179;28;20198;-54
2023/03/11 02:54:33;;;;;;;13.77;8.90;;;;;;;12.21;93.25;97533.00;5097267;28;20172;-54
2023/03/11 02:57:00;;;;;;;9.80;8.90;;;;;;;12.21;93.12;97530.41;5096948;28;20197;-54
2023/03/11 02:59:27;;;;;;;12.43;9.23;;;;;;;12.13;93.19;97527.16;5097224;28;20202;-54
2023/03/11 03:01:55;;;;;;;10.23;9.30;;;;;;;12.24;93.28;97514.06;5097244;28;20172;-55
2023/03/11 03:04:22;;;;;;;9.60;8.70;;;;;;;12.24;92.94;97493.47;5096717;28;20225;-54
2023/03/11 03:06:48;;;;;;;10.77;9.27;;;;;;;12.30;93.05;97485.59;5097154;28;20202;-54
2023/03/11 03:09:15;;;;;;;10.93;9.27;;;;;;;12.37;92.68;97485.41;5097098;28;20183;-55
2023/03/11 03:11:42;;;;;;;10.80;9.70;;;;;;;12.44;92.18;97465.53;5096708;28;20172;-54
2023/03/11 03:14:09;;;;;;;12.40;10.57;;;;;;;12.45;91.36;97449.19;5096893;28;20222;-54
2023/03/11 03:16:35;;;;;;;12.57;10.33;;;;;;;12.38;91.87;97445.06;5095835;28;20422;-53
2023/03/11 03:19:04;;;;;;;14.20;10.13;;;;;;;12.44;91.69;97438.03;5097033;28;20174;-54
2023/03/11 03:21:31;;;;;;;13.65;11.05;;;;;;;12.42;91.94;97434.66;5096010;28;20437;-55
2023/03/11 03:23:57;;;;;;;10.07;8.70;;;;;;;12.51;91.75;97438.72;5096783;28;20190;-54
2023/03/11 03:26:24;;;;;;;9.67;8.67;;;;;;;12.53;91.09;97438.69;5097007;28;20235;-54
2023/03/11 03:28:51;;;;;;;11.50;8.90;;;;;;;12.46;91.69;97447.44;5096862;28;20231;-54
2023/03/11 03:31:19;;;;;;;10.17;8.90;;;;;;;12.35;91.86;97440.84;5096932;28;20186;-53
2023/03/11 03:33:46;;;;;;;9.97;8.97;;;;;;;12.30;91.89;97442.69;5096859;28;20172;-54
2023/03/11 03:36:15;;;;;;;9.00;8.07;;;;;;;12.26;92.72;97435.03;5100029;28;20198;-54
2023/03/11 03:38:42;;;;;;;12.93;8.13;;;;;;;12.25;92.93;97446.25;5100418;28;20178;-54
2023/03/11 03:41:10;;;;;;;9.90;8.40;;;;;;;11.97;92.77;97398.84;5100483;28;20182;-54
2023/03/11 03:43:37;;;;;;;13.20;9.30;;;;;;;12.28;91.96;97444.44;5100208;28;20172;-54
2023/03/11 03:46:05;;;;;;;9.10;7.67;;;;;;;12.30;91.69;97439.25;5100325;28;20225;-54
2023/03/11 03:48:33;;;;;;;12.20;7.27;;;;;;;12.27;91.76;97441.91;5100341;28;20178;-54
2023/03/11 03:51:03;;;;;;;7.90;7.07;;;;;;;12.28;91.74;97438.41;5100258;28;20190;-54
2023/03/11 03:53:34;;;;;;;8.10;6.90;;;;;;;12.33;91.66;97447.72;5100253;28;20203;-54
2023/03/11 03:56:03;;;;;;;7.73;6.70;;;;;;;12.40;91.46;97453.59;5100074;28;20175;-55
2023/03/11 03:58:29;;;;;;;10.13;7.43;;;;;;;12.44;91.12;97455.22;5099889;28;20191;-54
2023/03/11 04:00:56;;;;;;;8.90;7.57;;;;;;;12.53;90.28;97470.44;5100065;28;20171;-54
2023/03/11 04:03:24;;;;;;;10.67;7.37;;;;;;;12.31;90.07;97452.09;5098474;28;20219;-55
2023/03/11 04:05:50;;;;;;;9.03;8.00;;;;;;;12.52;90.38;97497.09;5093596;28;20203;-55
2023/03/11 04:08:17;;;;;;;10.50;8.30;;;;;;;12.48;90.45;97503.19;5079718;28;20202;-54
2023/03/11 04:10:55;;;;;;;11.77;8.70;;;;;;;12.56;90.39;97527.03;5079700;28;20172;-54
2023/03/11 04:13:22;;;;;;;11.70;8.57;;;;;;;12.63;90.48;97538.91;5079719;28;20196;-54
2023/03/11 04:15:49;;;;;;;11.97;8.70;;;;;;;12.55;90.00;97534.81;5079810;28;20185;-54
2023/03/11 04:18:16;;;;;;;9.97;8.97;;;;;;;12.66;89.75;97538.81;5079744;28;20232;-54
2023/03/11 04:20:43;;;;;;;11.00;8.03;;;;;;;12.71;89.64;97546.47;5079550;28;20181;-55
2023/03/11 04:23:09;;;;;;;9.47;8.53;;;;;;;12.70;89.12;97549.91;5079690;28;20207;-54
2023/03/11 04:25:36;;;;;;;9.87;8.60;;;;;;;12.71;89.36;97539.56;5079345;28;20203;-54
2023/03/11 04:28:05;;;;;;;9.07;7.77;;;;;;;12.72;88.44;97555.84;5079289;28;20205;-54
2023/03/11 04:30:31;;;;;;;10.27;8.23;;;;;;;12.72;88.38;97561.88;5079551;28;20242;-54
2023/03/11 04:32:58;;;;;;;8.97;8.07;;;;;;;12.66;88.65;97566.34;5079506;28;20172;-54
2023/03/11 04:35:25;;;;;;;8.53;7.73;;;;;;;12.62;88.56;97562.13;5079419;28;20170;-54
2023/03/11 04:37:52;;;;;;;9.63;7.83;;;;;;;12.62;89.08;97586.16;5079104;28;20172;-54
2023/03/11 04:40:19;;;;;;;8.33;7.53;;;;;;;12.54;89.24;97577.75;5079225;28;20299;-54
2023/03/11 04:42:45;;;;;;;9.00;8.10;;;;;;;12.53;89.39;97578.63;5079201;28;20275;-54
2023/03/11 04:45:14;;;;;;;8.87;7.93;;;;;;;12.45;89.96;97580.53;5078790;28;20196;-54
2023/03/11 04:47:40;;;;;;;10.73;8.27;;;;;;;12.41;89.52;97576.34;5078149;28;20220;-54
2023/03/11 04:50:07;;;;;;;9.23;8.30;;;;;;;12.47;89.90;97573.59;5078913;28;20176;-54
2023/03/11 04:52:34;;;;;;;11.17;8.20;;;;;;;12.46;89.74;97569.34;5078858;28;20200;-56
2023/03/11 04:55:01;;;;;;;11.90;7.87;;;;;;;12.54;88.85;97589.78;5078720;28;20172;-55
2023/03/11 04:57:28;;;;;;;7.70;6.50;;;;;;;12.49;88.46;97571.84;5079028;28;20184;-55
2023/03/11 04:59:54;;;;;;;7.23;6.50;;;;;;;12.57;87.96;97571.69;5078833;28;20176;-55
2023/03/11 05:02:22;;;;;;;6.83;6.17;;;;;;;12.64;88.09;97570.66;5078693;28;20182;-54
2023/03/11 05:04:49;;;;;;;8.50;7.60;;;;;;;12.70;87.85;97576.53;5078434;28;20509;-54
2023/03/11 05:07:16;;;;;;;8.07;7.20;;;;;;;12.75;87.84;97574.69;5078737;28;20169;-55
2023/03/11 05:09:43;;;;;;;9.60;7.07;;;;;;;12.79;86.97;97575.47;5095495;28;20174;-55
2023/03/11 05:12:12;;;;;;;8.57;7.33;;;;;;;12.74;86.80;97577.31;5098774;28;20194;-54
2023/03/11 05:14:39;;;;;;;10.20;7.40;;;;;;;12.80;86.28;97587.47;5087525;28;20213;-55
2023/03/11 05:17:06;;;;;;;8.13;7.33;;;;;;;12.85;86.04;97591.63;5078606;28;20177;-55
2023/03/11 05:19:34;;;;;;;9.73;7.00;;;;;;;12.90;85.48;97589.81;5078539;28;20188;-54
2023/03/11 05:22:02;;;;;;;9.47;7.10;;;;;;;12.94;85.04;97581.09;5078532;28;20176;-55
2023/03/11 05:24:29;;;;;;;7.70;6.20;;;;;;;13.02;84.55;97583.47;5078373;28;20172;-54
2023/03/11 05:26:56;;;;;;;5.70;5.07;;;;;;;13.13;83.50;97578.13;5078297;28;20168;-54
2023/03/11 05:29:23;;;;;;;7.23;5.23;;;;;;;13.14;82.84;97579.78;5081595;28;20186;-55
2023/03/11 05:31:50;;;;;;;9.87;5.87;;;;;;;13.26;82.51;97582.09;5098259;28;20204;-55
2023/03/11 05:34:18;;;;;;;6.03;5.43;;;;;;;13.30;82.63;97584.53;5098401;28;20202;-54
2023/03/11 05:36:46;;;;;;;6.23;4.83;;;;;;;13.37;82.16;97591.25;5098281;28;20178;-54
2023/03/11 05:39:13;;;;;;;7.30;6.33;;;;;;;13.40;81.84;97569.69;5098338;28;20172;-55
2023/03/11 05:41:40;;;;;;;9.83;5.60;;;;;;;13.51;81.37;97583.97;5098244;28;20183;-54
2023/03/11 05:44:07;;;;;;;7.77;5.50;;;;;;;13.56;81.15;97581.28;5098025;28;20185;-55
2023/03/11 05:46:34;;;;;;;5.77;5.00;;;;;;;13.62;80.82;97580.28;5098017;28;20198;-54
2023/03/11 05:49:01;;;;;;;5.80;5.30;;;;;;;13.70;79.88;97573.19;5098083;28;20171;-54
2023/03/11 05:51:28;;;;;;;5.70;5.03;;;;;;;13.74;79.78;97575.63;5098010;28;20184;-54
2023/03/11 05:53:57;;;;;;;8.07;5.70;;;;;;;13.76;79.88;97571.28;5098025;28;20172;-54
2023/03/11 05:56:24;;;;;;;6.03;5.27;;;;;;;13.88;79.18;97573.53;5098057;28;20167;-55
2023/03/11 05:58:51;;;;;;;8.63;5.80;;;;;;;13.88;79.29;97563.19;5097473;28;20167;-54
2023/03/11 06:01:19;;;;;;;6.90;5.50;;;;;;;13.73;79.52;97547.31;5097882;28;20172;-54
2023/03/11 06:03:46;;;;;;;9.10;6.83;;;;;;;13.94;79.07;97564.75;5097837;28;20171;-55
2023/03/11 06:06:13;;;;;;;7.37;6.67;;;;;;;13.92;79.28;97558.81;5097566;28;20219;-54
2023/03/11 06:08:44;;;;;;;8.50;6.77;;;;;;;14.02;79.11;97565.41;5097634;28;20207;-54
2023/03/11 06:11:13;;;;;;;13.10;8.35;;;;;;;14.15;79.18;97559.84;5096817;28;20492;-53
2023/03/11 06:13:40;;;;;;;8.17;6.07;;;;;;;14.35;77.98;97554.13;5097839;28;20294;-55
2023/03/11 06:16:07;;;;;;;8.75;6.60;;;;;;;14.49;77.08;97546.81;5096454;28;20418;-54
2023/03/11 06:18:34;;;;;;;6.60;6.00;;;;;;;14.57;76.69;97543.97;5097549;28;20175;-54
2023/03/11 06:21:02;;;;;;;11.97;6.80;;;;;;;14.42;75.54;97508.28;5097345;28;20194;-54
2023/03/11 06:23:30;;;;;;;13.07;8.03;;;;;;;14.71;75.12;97534.91;5097379;28;20174;-55
2023/03/11 06:25:57;;;;;;;10.30;6.87;;;;;;;14.75;74.57;97539.06;5097068;28;20196;-55
2023/03/11 06:28:29;;;;;;;6.93;5.87;;;;;;;14.77;74.26;97526.97;5096656;28;20202;-54
2023/03/11 06:30:58;;;;;;;6.60;5.57;;;;;;;14.70;74.01;97515.13;5096577;28;20191;-55
2023/03/11 06:33:25;;;;;;;10.88;6.18;;;;;;;14.83;74.03;97533.69;5106810;28;20416;-54
2023/03/11 06:35:58;;;;;;;8.67;5.53;;;;;;;14.96;73.49;97531.53;5117213;28;20228;-56
2023/03/11 06:38:25;;;;;;;7.50;5.13;;;;;;;15.01;73.66;97545.16;5106839;28;20239;-55
2023/03/11 06:40:52;;;;;;;9.23;5.60;;;;;;;14.98;74.01;97540.06;5097102;28;20174;-54
2023/03/11 06:43:19;;;;;;;7.57;5.50;;;;;;;15.01;74.11;97527.91;5098002;28;20234;-55
2023/03/11 06:45:48;;;;;;;10.95;5.80;;;;;;;15.11;73.71;97537.03;5096214;28;20464;-54
2023/03/11 06:48:14;;;;;;;5.70;4.97;;;;;;;15.28;72.59;97542.50;5077046;28;20195;-55
2023/03/11 06:50:41;;;;;;;9.30;5.10;;;;;;;15.33;72.26;97542.34;5076914;28;20204;-54
2023/03/11 06:53:08;;;;;;;4.27;3.80;;;;;;;15.33;70.98;97535.41;5076785;28;20183;-54
2023/03/11 06:55:35;;;;;;;4.60;4.13;;;;;;;15.35;69.96;97535.38;5115014;28;20195;-54
2023/03/11 06:58:02;;;;;;;9.03;4.97;;;;;;;15.46;69.80;97529.84;5112088;28;20177;-55
2023/03/11 07:00:29;;;;;;;5.03;3.73;;;;;;;15.56;67.53;97533.81;5096988;28;20189;-55
2023/03/11 07:02:58;;;;;;;5.93;3.57;;;;;;;15.55;67.06;97532.13;5094954;28;20913;-55
2023/03/11 07:05:25;;;;;;;3.90;3.60;;;;;;;15.69;66.14;97535.06;5096412;28;20211;-54
2023/03/11 07:07:53;;;;;;;4.43;3.33;;;;;;;15.77;64.96;97536.50;5100444;28;20179;-54
2023/03/11 07:10:20;;;;;;;7.80;3.20;;;;;;;15.72;64.49;97540.16;5095746;28;20188;-54
2023/03/11 07:12:47;;;;;;;3.00;2.70;;;;;;;15.72;64.35;97530.63;5111066;28;20202;-55
2023/03/11 07:15:14;;;;;;;3.40;2.80;;;;;;;15.69;64.61;97532.47;5121076;28;20197;-54
2023/03/11 07:17:40;;;;;;;3.77;3.10;;;;;;;15.68;65.21;97529.06;5099687;28;20298;-54
2023/03/11 07:20:10;;;;;;;3.90;3.13;;;;;;;15.74;65.22;97538.38;5100760;28;20178;-54
2023/03/11 07:22:37;;;;;;;4.70;3.47;;;;;;;15.82;65.16;97537.16;5100480;28;20167;-56
2023/03/11 07:25:04;;;;;;;3.73;3.10;;;;;;;16.00;63.95;97529.63;5100338;28;20205;-56
2023/03/11 07:27:31;;;;;;;4.87;2.73;;;;;;;16.16;62.71;97523.84;5100192;28;20202;-55
2023/03/11 07:29:58;;;;;;;3.50;3.20;;;;;;;16.33;61.79;97529.22;5099279;28;20178;-55
2023/03/11 07:32:25;;;;;;;3.53;2.70;;;;;;;16.44;60.47;97523.63;5100311;28;20196;-55
2023/03/11 07:34:52;;;;;;;3.33;2.50;;;;;;;16.43;59.96;97524.53;5100111;28;20181;-55
2023/03/11 07:37:20;;;;;;;3.43;2.60;;;;;;;16.57;59.67;97522.28;5100133;28;20176;-55
2023/03/11 07:39:46;;;;;;;3.83;2.77;;;;;;;16.58;59.17;97534.34;5099902;28;20191;-55
2023/03/11 07:42:13;;;;;;;3.92;3.50;;;;;;;16.57;60.16;97526.59;5099345;28;20447;-56
2023/03/11 07:44:40;;;;;;;3.10;2.80;;;;;;;16.49;60.84;97524.28;5103510;28;20182;-55
2023/03/11 07:47:07;;;;;;;2.73;2.47;;;;;;;16.35;60.67;97521.38;5099372;28;20183;-55
2023/03/11 07:49:34;;;;;;;3.87;3.20;;;;;;;16.29;60.88;97516.44;5099267;28;20168;-55
2023/03/11 07:52:00;;;;;;;3.87;3.30;;;;;;;16.39;61.79;97530.75;5099237;28;20176;-55
2023/03/11 07:54:29;;;;;;;3.50;3.17;;;;;;;16.36;61.20;97531.72;5102382;28;20195;-56
2023/03/11 07:56:55;;;;;;;4.27;3.73;;;;;;;16.30;62.04;97518.13;5099736;28;20241;-54
2023/03/11 07:59:22;;;;;;;3.50;3.20;;;;;;;16.34;61.09;97530.09;5099720;28;20179;-55
2023/03/11 08:01:49;;;;;;;4.90;3.33;;;;;;;16.23;62.25;97524.47;5094740;28;20184;-56
2023/03/11 08:04:16;;;;;;;5.53;3.83;;;;;;;16.22;62.41;97522.75;5098832;28;20210;-56
2023/03/11 08:06:45;;;;;;;4.07;3.60;;;;;;;16.35;61.61;97521.38;5099181;28;20214;-56
2023/03/11 08:09:13;;;;;;;3.00;2.70;;;;;;;16.47;58.28;97516.59;5098564;28;20172;-55
2023/03/11 08:11:41;;;;;;;3.70;2.33;;;;;;;16.62;57.41;97512.56;5099523;28;20204;-55
2023/03/11 08:14:08;;;;;;;2.73;2.53;;;;;;;16.66;56.35;97511.56;5097888;28;20189;-55
2023/03/11 08:16:35;;;;;;;3.53;1.73;;;;;;;16.81;54.91;97510.91;5098686;28;20198;-54
2023/03/11 08:19:01;;;;;;;3.53;1.97;;;;;;;16.99;53.93;97512.78;5099072;28;20183;-55
2023/03/11 08:21:30;;;;;;;1.30;1.20;;;;;;;17.03;52.64;97509.16;5097285;28;20179;-55
2023/03/11 08:23:59;;;;;;;2.35;1.48;;;;;;;16.99;52.29;97498.97;5088154;28;20447;-56
2023/03/11 08:26:26;;;;;;;2.23;2.03;;;;;;;17.14;52.68;97513.06;5098980;28;20221;-55
2023/03/11 08:28:54;;;;;;;2.97;1.53;;;;;;;17.20;52.08;97513.63;5099060;28;20219;-55
2023/03/11 08:31:24;;;;;;;2.37;1.60;;;;;;;17.31;52.04;97508.84;5107162;28;20195;-55
2023/03/11 08:33:53;;;;;;;2.83;2.17;;;;;;;17.25;51.82;97483.13;5119403;28;20175;-55
2023/03/11 08:36:20;;;;;;;2.60;1.50;;;;;;;17.40;52.17;97510.19;5106862;28;20176;-55
2023/03/11 08:38:47;;;;;;;3.07;2.10;;;;;;;17.50;51.56;97514.09;5098455;28;20180;-55
2023/03/11 08:41:14;;;;;;;3.00;2.55;;;;;;;17.62;51.64;97516.19;5098145;28;20464;-55
2023/03/11 08:43:41;;;;;;;2.47;2.10;;;;;;;17.63;51.43;97497.94;5098739;28;20168;-58
2023/03/11 08:46:15;;;;;;;4.77;2.60;;;;;;;17.76;51.29;97498.25;5097745;28;20199;-55
2023/03/11 08:48:42;;;;;;;4.20;2.13;;;;;;;17.82;50.43;97508.38;5094715;28;20188;-55
2023/03/11 08:51:10;;;;;;;4.03;1.90;;;;;;;17.90;49.61;97508.03;5098350;28;20190;-54
2023/03/11 08:53:37;;;;;;;1.87;1.50;;;;;;;18.03;48.34;97506.56;5098021;28;20179;-55
2023/03/11 08:56:05;;;;;;;5.60;2.20;;;;;;;17.97;48.32;97509.44;5095491;28;20171;-54
2023/03/11 08:58:32;;;;;;;1.47;1.37;;;;;;;18.15;48.12;97506.88;5098050;28;20171;-54
2023/03/11 09:00:58;;;;;;;3.37;1.50;;;;;;;18.21;47.88;97495.34;5095209;28;20176;-55
2023/03/11 09:03:28;;;;;;;3.65;2.13;;;;;;;18.39;47.52;97501.44;5097318;28;20430;-55
2023/03/11 09:05:58;;;;;;;1.37;1.27;;;;;;;18.48;47.09;97486.28;5096546;28;20234;-55
2023/03/11 09:08:25;;;;;;;1.17;1.07;;;;;;;18.53;46.59;97493.84;5098578;28;20199;-55
2023/03/11 09:10:51;;;;;;;1.50;1.07;;;;;;;18.42;46.99;97485.69;5098554;28;20171;-55
2023/03/11 09:13:18;;;;;;;1.30;1.20;;;;;;;18.60;46.65;97480.47;5098113;28;20191;-55
2023/03/11 09:15:45;;;;;;;1.40;1.30;;;;;;;18.55;46.77;97471.22;5098184;28;20176;-54
2023/03/11 09:18:13;;;;;;;2.10;1.90;;;;;;;18.68;46.56;97477.50;5098225;28;20171;-55
2023/03/11 09:20:41;;;;;;;1.67;1.57;;;;;;;18.76;45.91;97467.59;5098074;28;20206;-55
2023/03/11 09:23:09;;;;;;;1.40;1.30;;;;;;;18.62;45.69;97470.84;5083710;28;20184;-55
2023/03/11 09:25:36;;;;;;;1.53;1.33;;;;;;;18.62;46.05;97462.22;5077810;28;20177;-55
2023/03/11 09:28:03;;;;;;;1.40;1.30;;;;;;;18.81;45.73;97460.41;5077523;28;20231;-55
2023/03/11 09:30:30;;;;;;;1.97;1.80;;;;;;;18.78;45.65;97452.75;5077645;28;20207;-55
2023/03/11 09:32:57;;;;;;;1.10;1.10;;;;;;;18.80;44.29;97451.75;5089623;28;20183;-55
2023/03/11 09:35:24;;;;;;;1.37;1.27;;;;;;;18.67;44.49;97455.88;5096248;28;20200;-55
2023/03/11 09:37:52;;;;;;;1.97;1.40;;;;;;;18.67;44.92;97445.47;5087510;28;20255;-58
2023/03/11 09:40:21;;;;;;;2.23;2.03;;;;;;;18.67;44.92;97448.06;5077317;28;20202;-55
2023/03/11 09:42:57;;;;;;;1.50;1.40;;;;;;;18.41;45.66;97430.25;5088094;28;20206;-55
2023/03/11 09:45:26;;;;;;;2.60;1.90;;;;;;;18.29;46.37;97441.25;5097720;28;20167;-55
2023/03/11 09:48:11;;;;;;;1.43;1.33;;;;;;;18.40;45.92;97441.56;5097589;28;20215;-55
2023/03/11 09:50:43;;;;;;;2.75;1.95;;;;;;;18.60;46.01;97448.41;5096402;28;20459;-55
2023/03/11 09:53:22;;;;;;;3.17;1.83;;;;;;;18.84;44.97;97447.25;5097451;28;20171;-55
2023/03/11 09:55:52;;;;;;;1.93;1.63;;;;;;;18.87;44.85;97441.03;5096444;28;20439;-55
2023/03/11 09:58:29;;;;;;;1.43;1.33;;;;;;;18.88;43.51;97443.56;5097031;28;20241;-57
2023/03/11 10:00:56;;;;;;;1.60;1.50;;;;;;;19.06;42.81;97427.03;5091461;28;20189;-56
2023/03/11 10:03:31;;;;;;;1.13;1.13;;;;;;;19.02;43.00;97432.47;5097448;28;20191;-56
2023/03/11 10:06:16;;;;;;;1.20;1.10;;;;;;;18.97;42.51;97432.69;5097324;28;20178;-55
2023/03/11 10:08:50;;;;;;;1.70;1.60;;;;;;;19.02;42.31;97432.47;5096112;28;20213;-55
2023/03/11 10:11:29;;;;;;;2.83;1.50;;;;;;;18.43;42.15;97388.59;5093193;28;20196;-55
2023/03/11 10:14:09;;;;;;;1.73;1.63;;;;;;;18.76;42.74;97446.78;5096701;28;20192;-55
2023/03/11 10:16:47;;;;;;;1.90;1.73;;;;;;;18.94;41.60;97453.66;5095253;28;20239;-56
2023/03/11 10:19:25;;;;;;;1.50;1.40;;;;;;;18.89;41.70;97447.84;5096186;28;20213;-56
2023/03/11 10:22:02;;;;;;;1.77;1.53;;;;;;;18.94;41.10;97447.63;5096468;28;20195;-56
2023/03/11 10:24:40;;;;;;;2.47;1.53;;;;;;;18.73;41.46;97462.53;5096487;28;20234;-56
2023/03/11 10:27:13;;;;;;;1.80;1.70;;;;;;;18.69;41.59;97454.03;5103866;28;20242;-56
2023/03/11 10:29:48;;;;;;;2.20;2.00;;;;;;;18.65;42.19;97457.69;5104079;28;20199;-56
2023/03/11 10:32:18;;;;;;;2.03;1.90;;;;;;;18.66;41.94;97450.72;5097132;28;20167;-55
2023/03/11 10:34:49;;;;;;;5.17;1.97;;;;;;;18.78;41.82;97413.72;5096926;28;20191;-55
2023/03/11 10:37:19;;;;;;;2.63;1.90;;;;;;;18.93;41.11;97433.75;5115326;28;20190;-56
2023/03/11 10:39:48;;;;;;;1.67;1.57;;;;;;;19.00;40.93;97429.94;5108188;28;20205;-55
2023/03/11 10:42:19;;;;;;;1.80;1.70;;;;;;;19.12;40.91;97423.25;5097003;28;20198;-55
2023/03/11 10:44:46;;;;;;;1.90;1.70;;;;;;;19.11;41.25;97430.25;5099754;28;20171;-56
2023/03/11 10:47:18;;;;;;;2.83;2.43;;;;;;;19.23;40.70;97427.00;5100813;28;20217;-56
2023/03/11 10:49:44;;;;;;;3.73;2.27;;;;;;;19.24;40.09;97435.66;5091653;28;20203;-55
2023/03/11 10:52:12;;;;;;;2.90;2.20;;;;;;;19.20;39.37;97424.56;5083542;28;20178;-54
2023/03/11 10:54:44;;;;;;;3.83;2.33;;;;;;;19.08;39.55;97411.34;5100661;28;20288;-54
2023/03/11 10:57:24;;;;;;;4.40;2.57;;;;;;;19.20;39.78;97416.75;5100695;28;20198;-54
2023/03/11 10:59:52;;;;;;;3.83;3.20;;;;;;;19.34;39.79;97423.84;5093950;28;20176;-55
2023/03/11 11:02:25;;;;;;;3.07;2.77;;;;;;;19.45;39.54;97413.75;5098397;28;20190;-55
2023/03/11 11:05:07;;;;;;;3.30;2.40;;;;;;;19.55;38.83;97411.50;5100671;28;20171;-54
2023/03/11 11:07:36;;;;;;;3.10;2.77;;;;;;;19.55;38.36;97399.31;5099175;28;20217;-55
2023/03/11 11:10:18;;;;;;;4.20;2.93;;;;;;;19.70;38.60;97406.31;5099863;28;20195;-55
2023/03/11 11:12:58;;;;;;;4.33;3.37;;;;;;;19.75;37.50;97404.28;5098159;28;20202;-55
2023/03/11 11:15:28;;;;;;;5.07;3.60;;;;;;;19.79;37.98;97394.56;5100737;28;20171;-56
2023/03/11 11:17:58;;;;;;;3.37;3.07;;;;;;;20.03;37.79;97395.81;5100525;28;20199;-56
2023/03/11 11:20:27;;;;;;;2.80;2.57;;;;;;;20.01;37.58;97395.06;5099196;28;20207;-56
2023/03/11 11:22:56;;;;;;;5.40;4.27;;;;;;;19.97;37.77;97389.19;5100033;28;20225;-55
2023/03/11 11:25:29;;;;;;;8.30;5.57;;;;;;;19.93;37.60;97402.47;5100228;28;20240;-55
2023/03/11 11:28:00;;;;;;;4.50;3.43;;;;;;;19.68;37.61;97382.13;5099992;28;20229;-55
2023/03/11 11:30:28;;;;;;;5.30;3.57;;;;;;;19.63;37.69;97388.50;5099776;28;20176;-55
2023/03/11 11:32:55;;;;;;;3.43;2.90;;;;;;;19.49;37.01;97384.03;5099651;28;20227;-55
2023/03/11 11:35:23;;;;;;;4.90;2.90;;;;;;;19.34;36.32;97395.19;5099788;28;20192;-55
2023/03/11 11:37:52;;;;;;;3.97;2.80;;;;;;;19.23;36.68;97379.28;5098993;28;20206;-55